sensor_id;sensor_type;location;lat;lon;timestamp;temperature;humidity
76470;DHT22;65305;52.870;13.660;2023-02-01T00:01:51;4.50;63.60
76470;DHT22;65305;52.870;13.660;2023-02-01T00:04:18;4.40;63.60
76470;DHT22;65305;52.870;13.660;2023-02-01T00:06:44;4.40;63.50
76470;DHT22;65305;52.870;13.660;2023-02-01T00:09:11;4.40;63.70
76470;DHT22;65305;52.870;13.660;2023-02-01T00:11:37;4.40;63.60
76470;DHT22;65305;52.870;13.660;2023-02-01T00:14:04;4.40;63.80
76470;DHT22;65305;52.870;13.660;2023-02-01T00:16:30;4.40;63.80
76470;DHT22;65305;52.870;13.660;2023-02-01T00:19:01;4.40;63.80
76470;DHT22;65305;52.870;13.660;2023-02-01T00:21:28;4.40;63.70
76470;DHT22;65305;52.870;13.660;2023-02-01T00:23:54;4.40;63.80
76470;DHT22;65305;52.870;13.660;2023-02-01T00:26:22;4.40;63.90
76470;DHT22;65305;52.870;13.660;2023-02-01T00:28:52;4.40;64.00
76470;DHT22;65305;52.870;13.660;2023-02-01T00:31:19;4.40;63.80
76470;DHT22;65305;52.870;13.660;2023-02-01T00:33:48;4.40;63.80
76470;DHT22;65305;52.870;13.660;2023-02-01T00:36:15;4.40;63.70
76470;DHT22;65305;52.870;13.660;2023-02-01T00:38:42;4.40;63.70
76470;DHT22;65305;52.870;13.660;2023-02-01T00:41:12;4.40;63.70
76470;DHT22;65305;52.870;13.660;2023-02-01T00:43:39;4.40;63.70
76470;DHT22;65305;52.870;13.660;2023-02-01T00:46:05;4.40;63.80
76470;DHT22;65305;52.870;13.660;2023-02-01T00:48:32;4.40;63.60
76470;DHT22;65305;52.870;13.660;2023-02-01T00:51:02;4.40;63.70
76470;DHT22;65305;52.870;13.660;2023-02-01T00:53:29;4.40;63.60
76470;DHT22;65305;52.870;13.660;2023-02-01T00:55:56;4.40;63.60
76470;DHT22;65305;52.870;13.660;2023-02-01T00:58:22;4.40;63.60
76470;DHT22;65305;52.870;13.660;2023-02-01T01:01:01;4.40;63.50
76470;DHT22;65305;52.870;13.660;2023-02-01T01:03:29;4.40;63.50
76470;DHT22;65305;52.870;13.660;2023-02-01T01:06:00;4.40;63.70
76470;DHT22;65305;52.870;13.660;2023-02-01T01:08:26;4.40;63.50
76470;DHT22;65305;52.870;13.660;2023-02-01T01:10:53;4.40;63.60
76470;DHT22;65305;52.870;13.660;2023-02-01T01:13:19;4.40;63.50
76470;DHT22;65305;52.870;13.660;2023-02-01T01:15:46;4.40;63.60
76470;DHT22;65305;52.870;13.660;2023-02-01T01:18:13;4.40;63.50
76470;DHT22;65305;52.870;13.660;2023-02-01T01:20:40;4.40;63.70
76470;DHT22;65305;52.870;13.660;2023-02-01T01:23:07;4.40;63.70
76470;DHT22;65305;52.870;13.660;2023-02-01T01:25:37;4.40;63.60
76470;DHT22;65305;52.870;13.660;2023-02-01T01:28:03;4.40;63.90
76470;DHT22;65305;52.870;13.660;2023-02-01T01:30:30;4.40;63.80
76470;DHT22;65305;52.870;13.660;2023-02-01T01:32:56;4.40;63.80
76470;DHT22;65305;52.870;13.660;2023-02-01T01:35:23;4.40;63.70
76470;DHT22;65305;52.870;13.660;2023-02-01T01:37:49;4.40;63.70
76470;DHT22;65305;52.870;13.660;2023-02-01T01:40:16;4.40;63.70
76470;DHT22;65305;52.870;13.660;2023-02-01T01:42:43;4.40;63.70
76470;DHT22;65305;52.870;13.660;2023-02-01T01:45:27;4.40;63.90
76470;DHT22;65305;52.870;13.660;2023-02-01T01:47:59;4.40;63.90
76470;DHT22;65305;52.870;13.660;2023-02-01T01:50:29;4.40;64.00
76470;DHT22;65305;52.870;13.660;2023-02-01T01:52:57;4.40;63.90
76470;DHT22;65305;52.870;13.660;2023-02-01T01:55:25;4.40;64.10
76470;DHT22;65305;52.870;13.660;2023-02-01T01:57:57;4.40;64.10
76470;DHT22;65305;52.870;13.660;2023-02-01T02:00:27;4.40;64.10
76470;DHT22;65305;52.870;13.660;2023-02-01T02:03:12;4.40;64.00
76470;DHT22;65305;52.870;13.660;2023-02-01T02:05:41;4.40;64.00
76470;DHT22;65305;52.870;13.660;2023-02-01T02:08:07;4.40;64.10
76470;DHT22;65305;52.870;13.660;2023-02-01T02:10:34;4.40;64.10
76470;DHT22;65305;52.870;13.660;2023-02-01T02:13:19;4.40;64.10
76470;DHT22;65305;52.870;13.660;2023-02-01T02:15:53;4.40;64.00
76470;DHT22;65305;52.870;13.660;2023-02-01T02:18:25;4.40;64.10
76470;DHT22;65305;52.870;13.660;2023-02-01T02:38:30;4.40;63.90
76470;DHT22;65305;52.870;13.660;2023-02-01T02:43:34;4.40;63.90
76470;DHT22;65305;52.870;13.660;2023-02-01T02:46:29;4.40;63.90
76470;DHT22;65305;52.870;13.660;2023-02-01T02:49:22;4.40;64.00
76470;DHT22;65305;52.870;13.660;2023-02-01T02:51:51;4.40;63.90
76470;DHT22;65305;52.870;13.660;2023-02-01T02:54:37;4.40;63.90
76470;DHT22;65305;52.870;13.660;2023-02-01T02:57:26;4.40;63.80
76470;DHT22;65305;52.870;13.660;2023-02-01T03:00:14;4.40;63.90
76470;DHT22;65305;52.870;13.660;2023-02-01T03:02:59;4.40;63.80
76470;DHT22;65305;52.870;13.660;2023-02-01T03:05:46;4.40;63.90
76470;DHT22;65305;52.870;13.660;2023-02-01T03:08:21;4.40;63.80
76470;DHT22;65305;52.870;13.660;2023-02-01T03:13:20;4.40;63.80
76470;DHT22;65305;52.870;13.660;2023-02-01T03:15:57;4.40;63.90
76470;DHT22;65305;52.870;13.660;2023-02-01T03:21:02;4.40;64.00
76470;DHT22;65305;52.870;13.660;2023-02-01T03:23:31;4.40;63.90
76470;DHT22;65305;52.870;13.660;2023-02-01T03:25:59;4.30;63.90
76470;DHT22;65305;52.870;13.660;2023-02-01T03:28:28;4.40;63.80
76470;DHT22;65305;52.870;13.660;2023-02-01T03:30:58;4.40;63.80
76470;DHT22;65305;52.870;13.660;2023-02-01T03:33:24;4.40;63.80
76470;DHT22;65305;52.870;13.660;2023-02-01T03:41:17;4.30;63.70
76470;DHT22;65305;52.870;13.660;2023-02-01T03:43:52;4.40;63.70
76470;DHT22;65305;52.870;13.660;2023-02-01T03:46:25;4.40;63.70
76470;DHT22;65305;52.870;13.660;2023-02-01T03:48:54;4.40;63.70
76470;DHT22;65305;52.870;13.660;2023-02-01T03:51:21;4.40;63.60
76470;DHT22;65305;52.870;13.660;2023-02-01T03:53:49;4.40;63.60
76470;DHT22;65305;52.870;13.660;2023-02-01T03:56:17;4.40;63.60
76470;DHT22;65305;52.870;13.660;2023-02-01T03:58:45;4.40;63.60
76470;DHT22;65305;52.870;13.660;2023-02-01T04:01:26;4.40;63.60
76470;DHT22;65305;52.870;13.660;2023-02-01T04:03:53;4.40;63.50
76470;DHT22;65305;52.870;13.660;2023-02-01T04:06:20;4.30;63.50
76470;DHT22;65305;52.870;13.660;2023-02-01T04:08:46;4.40;63.60
76470;DHT22;65305;52.870;13.660;2023-02-01T04:11:13;4.40;63.50
76470;DHT22;65305;52.870;13.660;2023-02-01T04:13:39;4.40;63.60
76470;DHT22;65305;52.870;13.660;2023-02-01T04:16:06;4.40;63.50
76470;DHT22;65305;52.870;13.660;2023-02-01T04:18:32;4.30;63.60
76470;DHT22;65305;52.870;13.660;2023-02-01T04:20:59;4.40;63.40
76470;DHT22;65305;52.870;13.660;2023-02-01T04:23:27;4.40;63.50
76470;DHT22;65305;52.870;13.660;2023-02-01T04:25:53;4.40;63.50
76470;DHT22;65305;52.870;13.660;2023-02-01T04:28:20;4.40;63.50
76470;DHT22;65305;52.870;13.660;2023-02-01T04:30:47;4.40;63.40
76470;DHT22;65305;52.870;13.660;2023-02-01T04:33:13;4.30;63.50
76470;DHT22;65305;52.870;13.660;2023-02-01T04:35:40;4.30;63.40
76470;DHT22;65305;52.870;13.660;2023-02-01T04:38:06;4.30;63.50
76470;DHT22;65305;52.870;13.660;2023-02-01T04:40:33;4.30;63.50
76470;DHT22;65305;52.870;13.660;2023-02-01T04:43:02;4.30;63.50
76470;DHT22;65305;52.870;13.660;2023-02-01T04:45:29;4.30;63.40
76470;DHT22;65305;52.870;13.660;2023-02-01T04:47:56;4.30;63.40
76470;DHT22;65305;52.870;13.660;2023-02-01T04:50:22;4.30;63.40
76470;DHT22;65305;52.870;13.660;2023-02-01T04:52:49;4.40;63.40
76470;DHT22;65305;52.870;13.660;2023-02-01T04:55:16;4.30;63.50
76470;DHT22;65305;52.870;13.660;2023-02-01T04:57:45;4.30;63.40
76470;DHT22;65305;52.870;13.660;2023-02-01T05:00:12;4.30;63.50
76470;DHT22;65305;52.870;13.660;2023-02-01T05:02:39;4.30;63.60
76470;DHT22;65305;52.870;13.660;2023-02-01T05:05:05;4.30;63.60
76470;DHT22;65305;52.870;13.660;2023-02-01T05:07:31;4.30;63.50
76470;DHT22;65305;52.870;13.660;2023-02-01T05:09:58;4.40;63.60
76470;DHT22;65305;52.870;13.660;2023-02-01T05:12:24;4.30;63.50
76470;DHT22;65305;52.870;13.660;2023-02-01T05:15:09;4.30;63.50
76470;DHT22;65305;52.870;13.660;2023-02-01T05:17:35;4.30;63.50
76470;DHT22;65305;52.870;13.660;2023-02-01T05:20:02;4.30;63.40
76470;DHT22;65305;52.870;13.660;2023-02-01T05:22:28;4.30;63.50
76470;DHT22;65305;52.870;13.660;2023-02-01T05:24:55;4.30;63.50
76470;DHT22;65305;52.870;13.660;2023-02-01T05:27:21;4.30;63.40
76470;DHT22;65305;52.870;13.660;2023-02-01T05:29:48;4.30;63.40
76470;DHT22;65305;52.870;13.660;2023-02-01T05:32:14;4.30;63.50
76470;DHT22;65305;52.870;13.660;2023-02-01T05:34:41;4.30;63.50
76470;DHT22;65305;52.870;13.660;2023-02-01T05:37:07;4.30;63.40
76470;DHT22;65305;52.870;13.660;2023-02-01T05:39:34;4.40;63.50
76470;DHT22;65305;52.870;13.660;2023-02-01T05:42:00;4.30;63.40
76470;DHT22;65305;52.870;13.660;2023-02-01T05:44:27;4.30;63.50
76470;DHT22;65305;52.870;13.660;2023-02-01T05:46:54;4.30;63.50
76470;DHT22;65305;52.870;13.660;2023-02-01T05:49:21;4.30;63.50
76470;DHT22;65305;52.870;13.660;2023-02-01T05:51:47;4.30;63.60
76470;DHT22;65305;52.870;13.660;2023-02-01T05:54:14;4.30;63.50
76470;DHT22;65305;52.870;13.660;2023-02-01T05:56:40;4.30;63.50
76470;DHT22;65305;52.870;13.660;2023-02-01T05:59:07;4.30;63.40
76470;DHT22;65305;52.870;13.660;2023-02-01T06:01:33;4.30;63.40
76470;DHT22;65305;52.870;13.660;2023-02-01T06:04:00;4.30;63.40
76470;DHT22;65305;52.870;13.660;2023-02-01T06:06:26;4.30;63.40
76470;DHT22;65305;52.870;13.660;2023-02-01T06:08:53;4.30;63.40
76470;DHT22;65305;52.870;13.660;2023-02-01T06:11:19;4.30;63.40
76470;DHT22;65305;52.870;13.660;2023-02-01T06:13:46;4.30;63.40
76470;DHT22;65305;52.870;13.660;2023-02-01T06:16:12;4.30;63.40
76470;DHT22;65305;52.870;13.660;2023-02-01T06:18:41;4.30;63.60
76470;DHT22;65305;52.870;13.660;2023-02-01T06:21:07;4.30;63.50
76470;DHT22;65305;52.870;13.660;2023-02-01T06:23:34;4.30;63.60
76470;DHT22;65305;52.870;13.660;2023-02-01T06:26:01;4.30;63.60
76470;DHT22;65305;52.870;13.660;2023-02-01T06:28:29;4.30;63.70
76470;DHT22;65305;52.870;13.660;2023-02-01T06:30:56;4.30;63.70
76470;DHT22;65305;52.870;13.660;2023-02-01T06:33:24;4.30;63.70
76470;DHT22;65305;52.870;13.660;2023-02-01T06:36:00;4.30;63.80
76470;DHT22;65305;52.870;13.660;2023-02-01T06:38:27;4.30;63.60
76470;DHT22;65305;52.870;13.660;2023-02-01T06:40:54;4.30;63.70
76470;DHT22;65305;52.870;13.660;2023-02-01T06:43:22;4.30;63.70
76470;DHT22;65305;52.870;13.660;2023-02-01T06:45:49;4.30;63.60
76470;DHT22;65305;52.870;13.660;2023-02-01T06:48:16;4.30;63.50
76470;DHT22;65305;52.870;13.660;2023-02-01T06:50:42;4.30;63.50
76470;DHT22;65305;52.870;13.660;2023-02-01T06:53:09;4.30;63.50
76470;DHT22;65305;52.870;13.660;2023-02-01T06:55:35;4.30;63.50
76470;DHT22;65305;52.870;13.660;2023-02-01T06:58:02;4.30;63.50
76470;DHT22;65305;52.870;13.660;2023-02-01T07:00:29;4.30;63.40
76470;DHT22;65305;52.870;13.660;2023-02-01T07:02:56;4.30;63.40
76470;DHT22;65305;52.870;13.660;2023-02-01T07:05:23;4.30;63.40
76470;DHT22;65305;52.870;13.660;2023-02-01T07:07:50;4.30;63.50
76470;DHT22;65305;52.870;13.660;2023-02-01T07:10:16;4.30;63.40
76470;DHT22;65305;52.870;13.660;2023-02-01T07:12:42;4.30;63.40
76470;DHT22;65305;52.870;13.660;2023-02-01T07:15:09;4.30;63.40
76470;DHT22;65305;52.870;13.660;2023-02-01T07:17:36;4.30;63.40
76470;DHT22;65305;52.870;13.660;2023-02-01T07:20:02;4.30;63.60
76470;DHT22;65305;52.870;13.660;2023-02-01T07:22:29;4.30;63.50
76470;DHT22;65305;52.870;13.660;2023-02-01T07:24:55;4.30;63.50
76470;DHT22;65305;52.870;13.660;2023-02-01T07:27:22;4.30;63.50
76470;DHT22;65305;52.870;13.660;2023-02-01T07:29:51;4.30;63.50
76470;DHT22;65305;52.870;13.660;2023-02-01T07:32:18;4.30;63.50
76470;DHT22;65305;52.870;13.660;2023-02-01T07:34:45;4.30;63.50
76470;DHT22;65305;52.870;13.660;2023-02-01T07:37:11;4.30;63.50
76470;DHT22;65305;52.870;13.660;2023-02-01T07:39:38;4.30;63.50
76470;DHT22;65305;52.870;13.660;2023-02-01T07:42:05;4.30;63.40
76470;DHT22;65305;52.870;13.660;2023-02-01T07:44:31;4.30;63.40
76470;DHT22;65305;52.870;13.660;2023-02-01T07:46:58;4.30;63.50
76470;DHT22;65305;52.870;13.660;2023-02-01T07:49:24;4.30;63.40
76470;DHT22;65305;52.870;13.660;2023-02-01T07:51:51;4.30;63.30
76470;DHT22;65305;52.870;13.660;2023-02-01T07:54:18;4.30;63.40
76470;DHT22;65305;52.870;13.660;2023-02-01T07:56:44;4.30;63.30
76470;DHT22;65305;52.870;13.660;2023-02-01T07:59:11;4.30;63.20
76470;DHT22;65305;52.870;13.660;2023-02-01T08:01:37;4.30;63.30
76470;DHT22;65305;52.870;13.660;2023-02-01T08:04:04;4.30;63.20
76470;DHT22;65305;52.870;13.660;2023-02-01T08:06:31;4.30;63.30
76470;DHT22;65305;52.870;13.660;2023-02-01T08:08:58;4.30;63.30
76470;DHT22;65305;52.870;13.660;2023-02-01T08:11:25;4.30;63.30
76470;DHT22;65305;52.870;13.660;2023-02-01T08:13:52;4.30;63.40
76470;DHT22;65305;52.870;13.660;2023-02-01T08:16:19;4.30;63.30
76470;DHT22;65305;52.870;13.660;2023-02-01T08:18:45;4.30;63.30
76470;DHT22;65305;52.870;13.660;2023-02-01T08:21:21;4.30;63.50
76470;DHT22;65305;52.870;13.660;2023-02-01T08:23:48;4.30;63.50
76470;DHT22;65305;52.870;13.660;2023-02-01T08:26:16;4.30;63.60
76470;DHT22;65305;52.870;13.660;2023-02-01T08:28:45;4.30;63.50
76470;DHT22;65305;52.870;13.660;2023-02-01T08:31:12;4.30;63.50
76470;DHT22;65305;52.870;13.660;2023-02-01T08:33:40;4.30;63.70
76470;DHT22;65305;52.870;13.660;2023-02-01T08:36:07;4.30;63.70
76470;DHT22;65305;52.870;13.660;2023-02-01T08:38:34;4.30;63.60
76470;DHT22;65305;52.870;13.660;2023-02-01T08:41:08;4.30;63.70
76470;DHT22;65305;52.870;13.660;2023-02-01T08:43:35;4.30;63.70
76470;DHT22;65305;52.870;13.660;2023-02-01T08:46:02;4.30;63.90
76470;DHT22;65305;52.870;13.660;2023-02-01T08:48:29;4.30;64.00
76470;DHT22;65305;52.870;13.660;2023-02-01T08:50:56;4.30;63.80
76470;DHT22;65305;52.870;13.660;2023-02-01T08:53:23;4.30;63.80
76470;DHT22;65305;52.870;13.660;2023-02-01T08:55:49;4.30;63.90
76470;DHT22;65305;52.870;13.660;2023-02-01T08:58:16;4.30;63.90
76470;DHT22;65305;52.870;13.660;2023-02-01T09:00:43;4.30;64.00
76470;DHT22;65305;52.870;13.660;2023-02-01T09:03:11;4.30;63.90
76470;DHT22;65305;52.870;13.660;2023-02-01T09:05:38;4.30;64.20
76470;DHT22;65305;52.870;13.660;2023-02-01T09:08:05;4.30;64.20
76470;DHT22;65305;52.870;13.660;2023-02-01T09:10:31;4.30;64.20
76470;DHT22;65305;52.870;13.660;2023-02-01T09:12:58;4.30;64.40
76470;DHT22;65305;52.870;13.660;2023-02-01T09:15:25;4.30;64.30
76470;DHT22;65305;52.870;13.660;2023-02-01T09:17:51;4.30;64.50
76470;DHT22;65305;52.870;13.660;2023-02-01T09:20:17;4.30;64.30
76470;DHT22;65305;52.870;13.660;2023-02-01T09:22:45;4.30;64.30
76470;DHT22;65305;52.870;13.660;2023-02-01T09:25:12;4.30;64.30
76470;DHT22;65305;52.870;13.660;2023-02-01T09:27:38;4.30;64.40
76470;DHT22;65305;52.870;13.660;2023-02-01T09:30:05;4.30;64.40
76470;DHT22;65305;52.870;13.660;2023-02-01T09:32:32;4.30;64.50
76470;DHT22;65305;52.870;13.660;2023-02-01T09:34:58;4.30;64.50
76470;DHT22;65305;52.870;13.660;2023-02-01T09:37:24;4.30;64.50
76470;DHT22;65305;52.870;13.660;2023-02-01T09:39:51;4.30;64.40
76470;DHT22;65305;52.870;13.660;2023-02-01T09:47:11;4.30;64.50
76470;DHT22;65305;52.870;13.660;2023-02-01T09:49:39;4.30;64.60
76470;DHT22;65305;52.870;13.660;2023-02-01T09:52:12;4.30;64.70
76470;DHT22;65305;52.870;13.660;2023-02-01T09:54:40;4.30;64.60
76470;DHT22;65305;52.870;13.660;2023-02-01T09:57:19;4.30;64.60
76470;DHT22;65305;52.870;13.660;2023-02-01T09:59:49;4.30;64.80
76470;DHT22;65305;52.870;13.660;2023-02-01T10:02:22;4.30;64.60
76470;DHT22;65305;52.870;13.660;2023-02-01T10:04:49;4.30;64.60
76470;DHT22;65305;52.870;13.660;2023-02-01T10:07:19;4.30;64.60
76470;DHT22;65305;52.870;13.660;2023-02-01T10:12:34;4.30;64.70
76470;DHT22;65305;52.870;13.660;2023-02-01T10:23:08;4.30;64.60
76470;DHT22;65305;52.870;13.660;2023-02-01T10:28:13;4.30;64.60
76470;DHT22;65305;52.870;13.660;2023-02-01T10:30:45;4.30;64.50
76470;DHT22;65305;52.870;13.660;2023-02-01T10:33:16;4.30;64.60
76470;DHT22;65305;52.870;13.660;2023-02-01T10:35:44;4.30;64.50
76470;DHT22;65305;52.870;13.660;2023-02-01T10:38:20;4.30;64.50
76470;DHT22;65305;52.870;13.660;2023-02-01T10:40:51;4.30;64.40
76470;DHT22;65305;52.870;13.660;2023-02-01T10:43:17;4.30;64.50
76470;DHT22;65305;52.870;13.660;2023-02-01T10:45:44;4.30;64.40
76470;DHT22;65305;52.870;13.660;2023-02-01T10:48:10;4.20;64.40
76470;DHT22;65305;52.870;13.660;2023-02-01T10:50:53;4.30;64.30
76470;DHT22;65305;52.870;13.660;2023-02-01T10:53:25;4.30;64.30
76470;DHT22;65305;52.870;13.660;2023-02-01T10:55:55;4.30;64.60
76470;DHT22;65305;52.870;13.660;2023-02-01T10:58:31;4.30;64.40
76470;DHT22;65305;52.870;13.660;2023-02-01T11:01:04;4.20;64.50
76470;DHT22;65305;52.870;13.660;2023-02-01T11:03:33;4.30;64.50
76470;DHT22;65305;52.870;13.660;2023-02-01T11:06:00;4.30;64.60
76470;DHT22;65305;52.870;13.660;2023-02-01T11:08:26;4.30;64.40
76470;DHT22;65305;52.870;13.660;2023-02-01T11:11:00;4.30;64.40
76470;DHT22;65305;52.870;13.660;2023-02-01T11:13:30;4.30;64.70
76470;DHT22;65305;52.870;13.660;2023-02-01T11:15:59;4.30;64.60
76470;DHT22;65305;52.870;13.660;2023-02-01T11:18:29;4.30;64.90
76470;DHT22;65305;52.870;13.660;2023-02-01T11:20:55;4.20;64.70
76470;DHT22;65305;52.870;13.660;2023-02-01T11:23:23;4.30;64.70
76470;DHT22;65305;52.870;13.660;2023-02-01T11:25:59;4.30;64.70
76470;DHT22;65305;52.870;13.660;2023-02-01T11:28:27;4.30;64.60
76470;DHT22;65305;52.870;13.660;2023-02-01T11:30:54;4.30;64.50
76470;DHT22;65305;52.870;13.660;2023-02-01T11:33:27;4.30;64.60
76470;DHT22;65305;52.870;13.660;2023-02-01T11:35:56;4.30;64.70
76470;DHT22;65305;52.870;13.660;2023-02-01T11:38:28;4.30;64.70
76470;DHT22;65305;52.870;13.660;2023-02-01T11:40:55;4.30;64.80
76470;DHT22;65305;52.870;13.660;2023-02-01T11:43:25;4.30;64.70
76470;DHT22;65305;52.870;13.660;2023-02-01T11:45:59;4.30;64.50
76470;DHT22;65305;52.870;13.660;2023-02-01T11:48:26;4.30;64.40
76470;DHT22;65305;52.870;13.660;2023-02-01T11:50:59;4.30;64.40
76470;DHT22;65305;52.870;13.660;2023-02-01T11:56:17;4.30;64.40
76470;DHT22;65305;52.870;13.660;2023-02-01T11:59:02;4.30;64.50
76470;DHT22;65305;52.870;13.660;2023-02-01T12:06:47;4.30;64.20
76470;DHT22;65305;52.870;13.660;2023-02-01T12:09:21;4.30;64.20
76470;DHT22;65305;52.870;13.660;2023-02-01T12:12:08;4.30;64.20
76470;DHT22;65305;52.870;13.660;2023-02-01T12:14:38;4.30;64.10
76470;DHT22;65305;52.870;13.660;2023-02-01T12:25:01;4.30;64.10
76470;DHT22;65305;52.870;13.660;2023-02-01T12:35:49;4.30;65.00
76470;DHT22;65305;52.870;13.660;2023-02-01T12:38:11;4.30;64.90
76470;DHT22;65305;52.870;13.660;2023-02-01T12:40:48;4.30;65.00
76470;DHT22;65305;52.870;13.660;2023-02-01T12:43:19;4.30;65.00
76470;DHT22;65305;52.870;13.660;2023-02-01T12:46:13;4.30;65.10
76470;DHT22;65305;52.870;13.660;2023-02-01T12:48:49;4.30;65.20
76470;DHT22;65305;52.870;13.660;2023-02-01T12:51:19;4.30;65.30
76470;DHT22;65305;52.870;13.660;2023-02-01T12:54:02;4.30;65.00
76470;DHT22;65305;52.870;13.660;2023-02-01T12:56:44;4.30;65.00
76470;DHT22;65305;52.870;13.660;2023-02-01T12:59:19;4.30;64.90
76470;DHT22;65305;52.870;13.660;2023-02-01T13:01:56;4.30;65.10
76470;DHT22;65305;52.870;13.660;2023-02-01T13:04:33;4.30;65.00
76470;DHT22;65305;52.870;13.660;2023-02-01T13:07:22;4.20;65.00
76470;DHT22;65305;52.870;13.660;2023-02-01T13:10:02;4.30;65.10
76470;DHT22;65305;52.870;13.660;2023-02-01T13:12:36;4.30;65.00
76470;DHT22;65305;52.870;13.660;2023-02-01T13:15:12;4.30;64.80
76470;DHT22;65305;52.870;13.660;2023-02-01T13:17:40;4.30;64.90
76470;DHT22;65305;52.870;13.660;2023-02-01T13:23:11;4.30;64.80
76470;DHT22;65305;52.870;13.660;2023-02-01T13:25:49;4.30;64.80
76470;DHT22;65305;52.870;13.660;2023-02-01T13:28:26;4.30;64.70
76470;DHT22;65305;52.870;13.660;2023-02-01T13:41:35;4.30;64.50
76470;DHT22;65305;52.870;13.660;2023-02-01T13:44:08;4.30;64.40
76470;DHT22;65305;52.870;13.660;2023-02-01T13:46:44;4.30;64.40
76470;DHT22;65305;52.870;13.660;2023-02-01T13:49:27;4.30;64.40
76470;DHT22;65305;52.870;13.660;2023-02-01T13:51:55;4.30;64.40
76470;DHT22;65305;52.870;13.660;2023-02-01T14:00:36;4.30;64.30
76470;DHT22;65305;52.870;13.660;2023-02-01T14:13:24;4.30;64.10
76470;DHT22;65305;52.870;13.660;2023-02-01T14:21:29;4.30;64.00
76470;DHT22;65305;52.870;13.660;2023-02-01T14:24:12;4.30;63.90
76470;DHT22;65305;52.870;13.660;2023-02-01T14:32:11;4.30;63.90
76470;DHT22;65305;52.870;13.660;2023-02-01T14:42:17;4.30;63.80
76470;DHT22;65305;52.870;13.660;2023-02-01T14:44:48;4.30;63.80
76470;DHT22;65305;52.870;13.660;2023-02-01T14:52:17;4.30;64.40
76470;DHT22;65305;52.870;13.660;2023-02-01T14:54:46;4.20;64.70
76470;DHT22;65305;52.870;13.660;2023-02-01T14:57:15;4.20;64.80
76470;DHT22;65305;52.870;13.660;2023-02-01T14:59:44;4.20;64.70
76470;DHT22;65305;52.870;13.660;2023-02-01T15:02:20;4.30;65.00
76470;DHT22;65305;52.870;13.660;2023-02-01T15:04:52;4.30;64.80
76470;DHT22;65305;52.870;13.660;2023-02-01T15:07:20;4.30;65.00
76470;DHT22;65305;52.870;13.660;2023-02-01T15:09:47;4.20;65.00
76470;DHT22;65305;52.870;13.660;2023-02-01T15:12:23;4.20;64.90
76470;DHT22;65305;52.870;13.660;2023-02-01T15:17:38;4.20;64.80
76470;DHT22;65305;52.870;13.660;2023-02-01T15:20:12;4.20;64.70
76470;DHT22;65305;52.870;13.660;2023-02-01T15:22:41;4.30;64.60
76470;DHT22;65305;52.870;13.660;2023-02-01T15:25:20;4.30;64.50
76470;DHT22;65305;52.870;13.660;2023-02-01T15:27:47;4.20;64.50
76470;DHT22;65305;52.870;13.660;2023-02-01T15:30:18;4.20;64.40
76470;DHT22;65305;52.870;13.660;2023-02-01T15:32:45;4.20;64.30
76470;DHT22;65305;52.870;13.660;2023-02-01T15:35:54;4.30;64.40
76470;DHT22;65305;52.870;13.660;2023-02-01T15:40:56;4.30;64.50
76470;DHT22;65305;52.870;13.660;2023-02-01T15:43:23;4.30;64.50
76470;DHT22;65305;52.870;13.660;2023-02-01T15:45:50;4.30;64.50
76470;DHT22;65305;52.870;13.660;2023-02-01T15:48:22;4.20;64.40
76470;DHT22;65305;52.870;13.660;2023-02-01T15:50:49;4.20;64.30
76470;DHT22;65305;52.870;13.660;2023-02-01T15:53:18;4.20;64.30
76470;DHT22;65305;52.870;13.660;2023-02-01T15:55:46;4.20;64.40
76470;DHT22;65305;52.870;13.660;2023-02-01T15:58:15;4.30;64.70
76470;DHT22;65305;52.870;13.660;2023-02-01T16:00:47;4.20;64.50
76470;DHT22;65305;52.870;13.660;2023-02-01T16:06:05;4.30;64.50
76470;DHT22;65305;52.870;13.660;2023-02-01T16:08:32;4.30;64.60
76470;DHT22;65305;52.870;13.660;2023-02-01T16:11:01;4.30;64.40
76470;DHT22;65305;52.870;13.660;2023-02-01T16:13:41;4.30;64.50
76470;DHT22;65305;52.870;13.660;2023-02-01T16:16:08;4.30;64.50
76470;DHT22;65305;52.870;13.660;2023-02-01T16:18:40;4.30;64.90
76470;DHT22;65305;52.870;13.660;2023-02-01T16:21:07;4.30;64.90
76470;DHT22;65305;52.870;13.660;2023-02-01T16:23:36;4.30;64.70
76470;DHT22;65305;52.870;13.660;2023-02-01T16:26:03;4.20;64.70
76470;DHT22;65305;52.870;13.660;2023-02-01T16:28:30;4.30;64.70
76470;DHT22;65305;52.870;13.660;2023-02-01T16:30:56;4.20;64.60
76470;DHT22;65305;52.870;13.660;2023-02-01T16:33:23;4.20;64.60
76470;DHT22;65305;52.870;13.660;2023-02-01T16:35:50;4.20;64.60
76470;DHT22;65305;52.870;13.660;2023-02-01T16:38:17;4.20;64.50
76470;DHT22;65305;52.870;13.660;2023-02-01T16:40:48;4.20;64.60
76470;DHT22;65305;52.870;13.660;2023-02-01T16:43:15;4.20;64.60
76470;DHT22;65305;52.870;13.660;2023-02-01T16:45:42;4.20;64.60
76470;DHT22;65305;52.870;13.660;2023-02-01T16:48:22;4.30;64.70
76470;DHT22;65305;52.870;13.660;2023-02-01T16:50:50;4.20;64.50
76470;DHT22;65305;52.870;13.660;2023-02-01T16:53:17;4.20;64.60
76470;DHT22;65305;52.870;13.660;2023-02-01T16:55:44;4.20;64.50
76470;DHT22;65305;52.870;13.660;2023-02-01T16:58:13;4.30;64.60
76470;DHT22;65305;52.870;13.660;2023-02-01T17:00:40;4.20;64.60
76470;DHT22;65305;52.870;13.660;2023-02-01T17:03:06;4.20;64.50
76470;DHT22;65305;52.870;13.660;2023-02-01T17:05:33;4.30;64.50
76470;DHT22;65305;52.870;13.660;2023-02-01T17:08:02;4.20;64.40
76470;DHT22;65305;52.870;13.660;2023-02-01T17:10:30;4.30;64.50
76470;DHT22;65305;52.870;13.660;2023-02-01T17:12:56;4.20;64.50
76470;DHT22;65305;52.870;13.660;2023-02-01T17:15:26;4.20;64.40
76470;DHT22;65305;52.870;13.660;2023-02-01T17:17:53;4.30;64.40
76470;DHT22;65305;52.870;13.660;2023-02-01T17:20:24;4.20;64.40
76470;DHT22;65305;52.870;13.660;2023-02-01T17:22:53;4.20;64.50
76470;DHT22;65305;52.870;13.660;2023-02-01T17:25:20;4.20;64.50
76470;DHT22;65305;52.870;13.660;2023-02-01T17:27:47;4.20;64.50
76470;DHT22;65305;52.870;13.660;2023-02-01T17:30:14;4.20;64.70
76470;DHT22;65305;52.870;13.660;2023-02-01T17:32:40;4.20;64.70
76470;DHT22;65305;52.870;13.660;2023-02-01T17:35:21;4.30;64.70
76470;DHT22;65305;52.870;13.660;2023-02-01T17:37:47;4.20;64.80
76470;DHT22;65305;52.870;13.660;2023-02-01T17:40:14;4.20;64.80
76470;DHT22;65305;52.870;13.660;2023-02-01T17:42:41;4.20;64.80
76470;DHT22;65305;52.870;13.660;2023-02-01T17:47:40;4.20;64.80
76470;DHT22;65305;52.870;13.660;2023-02-01T17:50:06;4.20;65.00
76470;DHT22;65305;52.870;13.660;2023-02-01T17:52:33;4.20;65.00
76470;DHT22;65305;52.870;13.660;2023-02-01T17:55:01;4.20;65.00
76470;DHT22;65305;52.870;13.660;2023-02-01T17:57:30;4.20;65.10
76470;DHT22;65305;52.870;13.660;2023-02-01T17:59:56;4.20;65.10
76470;DHT22;65305;52.870;13.660;2023-02-01T18:02:23;4.20;65.00